sensor_id;sensor_type;location;lat;lon;timestamp;pressure;altitude;pressure_sealevel;temperature;humidity
20017;BME280;10169;42.664;23.610;2023-05-19T00:01:49;95558.03;;;10.75;100.00
20017;BME280;10169;42.664;23.610;2023-05-19T00:03:52;95555.94;;;10.77;100.00
20017;BME280;10169;42.664;23.610;2023-05-19T00:05:53;95550.63;;;10.77;100.00
20017;BME280;10169;42.664;23.610;2023-05-19T00:07:53;95550.53;;;10.72;100.00
20017;BME280;10169;42.664;23.610;2023-05-19T00:09:55;95543.94;;;10.63;100.00
20017;BME280;10169;42.664;23.610;2023-05-19T00:11:55;95544.75;;;10.64;100.00
20017;BME280;10169;42.664;23.610;2023-05-19T00:13:57;95557.00;;;10.65;100.00
20017;BME280;10169;42.664;23.610;2023-05-19T00:15:57;95554.00;;;10.61;100.00
20017;BME280;10169;42.664;23.610;2023-05-19T00:17:57;95553.56;;;10.64;100.00
20017;BME280;10169;42.664;23.610;2023-05-19T00:19:58;95550.66;;;10.66;100.00
20017;BME280;10169;42.664;23.610;2023-05-19T00:21:58;95550.97;;;10.69;100.00
20017;BME280;10169;42.664;23.610;2023-05-19T00:23:58;95546.28;;;10.60;100.00
20017;BME280;10169;42.664;23.610;2023-05-19T00:25:59;95540.59;;;10.56;100.00
20017;BME280;10169;42.664;23.610;2023-05-19T00:27:59;95543.38;;;10.50;100.00
20017;BME280;10169;42.664;23.610;2023-05-19T00:30:01;95545.16;;;10.44;100.00
20017;BME280;10169;42.664;23.610;2023-05-19T00:32:01;95549.63;;;10.44;100.00
20017;BME280;10169;42.664;23.610;2023-05-19T00:34:01;95551.94;;;10.40;100.00
20017;BME280;10169;42.664;23.610;2023-05-19T00:36:02;95549.88;;;10.42;100.00
20017;BME280;10169;42.664;23.610;2023-05-19T00:38:02;95550.22;;;10.46;100.00
20017;BME280;10169;42.664;23.610;2023-05-19T00:40:03;95548.50;;;10.40;100.00
20017;BME280;10169;42.664;23.610;2023-05-19T00:42:05;95550.66;;;10.43;100.00
20017;BME280;10169;42.664;23.610;2023-05-19T00:44:05;95548.25;;;10.41;100.00
20017;BME280;10169;42.664;23.610;2023-05-19T00:46:06;95549.88;;;10.42;100.00
20017;BME280;10169;42.664;23.610;2023-05-19T00:48:06;95549.63;;;10.44;100.00
20017;BME280;10169;42.664;23.610;2023-05-19T00:50:06;95552.06;;;10.45;100.00
20017;BME280;10169;42.664;23.610;2023-05-19T00:52:07;95560.03;;;10.45;100.00
20017;BME280;10169;42.664;23.610;2023-05-19T00:54:07;95558.44;;;10.44;100.00
20017;BME280;10169;42.664;23.610;2023-05-19T00:56:08;95551.47;;;10.43;100.00
20017;BME280;10169;42.664;23.610;2023-05-19T00:58:08;95547.44;;;10.41;100.00
20017;BME280;10169;42.664;23.610;2023-05-19T01:00:09;95549.53;;;10.39;100.00
20017;BME280;10169;42.664;23.610;2023-05-19T01:02:10;95543.97;;;10.40;100.00
20017;BME280;10169;42.664;23.610;2023-05-19T01:04:10;95546.97;;;10.44;100.00
20017;BME280;10169;42.664;23.610;2023-05-19T01:06:15;95546.75;;;10.34;100.00
20017;BME280;10169;42.664;23.610;2023-05-19T01:08:18;95544.44;;;10.37;100.00
20017;BME280;10169;42.664;23.610;2023-05-19T01:10:19;95552.53;;;10.31;100.00
20017;BME280;10169;42.664;23.610;2023-05-19T01:12:19;95551.28;;;10.33;100.00
20017;BME280;10169;42.664;23.610;2023-05-19T01:14:19;95547.44;;;10.41;100.00
20017;BME280;10169;42.664;23.610;2023-05-19T01:18:51;95558.88;;;10.53;100.00
20017;BME280;10169;42.664;23.610;2023-05-19T01:21:03;95552.88;;;10.57;100.00
20017;BME280;10169;42.664;23.610;2023-05-19T01:25:35;95556.09;;;10.59;100.00
20017;BME280;10169;42.664;23.610;2023-05-19T01:31:56;95554.94;;;10.55;100.00
20017;BME280;10169;42.664;23.610;2023-05-19T01:33:58;95553.69;;;10.58;100.00
20017;BME280;10169;42.664;23.610;2023-05-19T01:35:59;95564.63;;;10.61;100.00
20017;BME280;10169;42.664;23.610;2023-05-19T01:38:03;95556.78;;;10.55;100.00
20017;BME280;10169;42.664;23.610;2023-05-19T01:40:05;95552.88;;;10.57;100.00
20017;BME280;10169;42.664;23.610;2023-05-19T01:42:05;95554.38;;;10.53;100.00
20017;BME280;10169;42.664;23.610;2023-05-19T01:44:06;95548.56;;;10.56;100.00
20017;BME280;10169;42.664;23.610;2023-05-19T01:46:06;95557.03;;;10.53;100.00
20017;BME280;10169;42.664;23.610;2023-05-19T01:48:07;95559.22;;;10.56;100.00
20017;BME280;10169;42.664;23.610;2023-05-19T01:50:07;95546.16;;;10.55;100.00
20017;BME280;10169;42.664;23.610;2023-05-19T01:52:08;95545.34;;;10.43;100.00
20017;BME280;10169;42.664;23.610;2023-05-19T01:54:08;95545.84;;;10.40;100.00
20017;BME280;10169;42.664;23.610;2023-05-19T01:56:09;95549.88;;;10.42;100.00
20017;BME280;10169;42.664;23.610;2023-05-19T01:58:24;95552.63;;;10.36;100.00
20017;BME280;10169;42.664;23.610;2023-05-19T02:02:32;95556.91;;;10.37;100.00
20017;BME280;10169;42.664;23.610;2023-05-19T02:04:42;95551.25;;;10.22;100.00
20017;BME280;10169;42.664;23.610;2023-05-19T02:11:06;95563.97;;;10.31;100.00
20017;BME280;10169;42.664;23.610;2023-05-19T02:13:12;95563.84;;;10.26;100.00
20017;BME280;10169;42.664;23.610;2023-05-19T02:15:14;95560.50;;;10.31;100.00
20017;BME280;10169;42.664;23.610;2023-05-19T02:17:15;95557.50;;;10.27;100.00
20017;BME280;10169;42.664;23.610;2023-05-19T02:19:20;95560.25;;;10.20;100.00
20017;BME280;10169;42.664;23.610;2023-05-19T02:21:21;95558.53;;;10.14;100.00
20017;BME280;10169;42.664;23.610;2023-05-19T02:23:21;95562.00;;;10.15;100.00
20017;BME280;10169;42.664;23.610;2023-05-19T02:25:21;95567.53;;;10.13;100.00
20017;BME280;10169;42.664;23.610;2023-05-19T02:27:23;95563.03;;;10.14;100.00
20017;BME280;10169;42.664;23.610;2023-05-19T02:29:23;95564.50;;;10.10;100.00
20017;BME280;10169;42.664;23.610;2023-05-19T02:31:23;95560.22;;;10.09;100.00
20017;BME280;10169;42.664;23.610;2023-05-19T02:33:24;95566.22;;;10.04;100.00
20017;BME280;10169;42.664;23.610;2023-05-19T02:35:25;95562.53;;;10.05;100.00
20017;BME280;10169;42.664;23.610;2023-05-19T02:37:25;95569.69;;;10.05;100.00
20017;BME280;10169;42.664;23.610;2023-05-19T02:39:27;95568.53;;;10.01;100.00
20017;BME280;10169;42.664;23.610;2023-05-19T02:41:30;95568.88;;;10.04;100.00
20017;BME280;10169;42.664;23.610;2023-05-19T02:43:30;95572.13;;;10.06;100.00
20017;BME280;10169;42.664;23.610;2023-05-19T02:45:31;95571.06;;;10.07;100.00
20017;BME280;10169;42.664;23.610;2023-05-19T02:47:31;95574.31;;;10.09;100.00
20017;BME280;10169;42.664;23.610;2023-05-19T02:49:31;95567.53;;;10.13;100.00
20017;BME280;10169;42.664;23.610;2023-05-19T02:51:34;95577.69;;;10.16;100.00
20017;BME280;10169;42.664;23.610;2023-05-19T02:53:35;95576.84;;;10.04;100.00
20017;BME280;10169;42.664;23.610;2023-05-19T02:55:35;95574.19;;;9.93;100.00
20017;BME280;10169;42.664;23.610;2023-05-19T02:57:36;95579.38;;;9.99;100.00
20017;BME280;10169;42.664;23.610;2023-05-19T02:59:36;95580.53;;;9.92;100.00
20017;BME280;10169;42.664;23.610;2023-05-19T03:01:36;95577.63;;;9.93;100.00
20017;BME280;10169;42.664;23.610;2023-05-19T03:03:37;95588.59;;;9.85;100.00
20017;BME280;10169;42.664;23.610;2023-05-19T03:05:37;95591.34;;;9.79;100.00
20017;BME280;10169;42.664;23.610;2023-05-19T03:07:37;95590.09;;;9.81;100.00
20017;BME280;10169;42.664;23.610;2023-05-19T03:09:38;95590.91;;;9.82;100.00
20017;BME280;10169;42.664;23.610;2023-05-19T03:11:38;95592.94;;;9.80;100.00
20017;BME280;10169;42.664;23.610;2023-05-19T03:13:39;95589.63;;;9.84;100.00
20017;BME280;10169;42.664;23.610;2023-05-19T03:15:39;95597.28;;;9.92;100.00
20017;BME280;10169;42.664;23.610;2023-05-19T03:17:41;95589.16;;;9.87;100.00
20017;BME280;10169;42.664;23.610;2023-05-19T03:19:41;95596.91;;;9.89;100.00
20017;BME280;10169;42.664;23.610;2023-05-19T03:21:42;95591.63;;;10.00;100.00
20017;BME280;10169;42.664;23.610;2023-05-19T03:23:42;95583.88;;;9.99;100.00
20017;BME280;10169;42.664;23.610;2023-05-19T03:25:42;95594.16;;;10.07;100.00
20017;BME280;10169;42.664;23.610;2023-05-19T03:27:42;95594.91;;;10.14;100.00
20017;BME280;10169;42.664;23.610;2023-05-19T03:29:43;95599.72;;;10.05;100.00
20017;BME280;10169;42.664;23.610;2023-05-19T03:31:43;95592.78;;;10.04;100.00
20017;BME280;10169;42.664;23.610;2023-05-19T03:33:43;95601.09;;;10.08;100.00
20017;BME280;10169;42.664;23.610;2023-05-19T03:35:44;95602.94;;;10.07;100.00
20017;BME280;10169;42.664;23.610;2023-05-19T03:37:44;95598.69;;;10.06;100.00
20017;BME280;10169;42.664;23.610;2023-05-19T03:39:44;95605.34;;;10.09;100.00
20017;BME280;10169;42.664;23.610;2023-05-19T03:41:45;95609.91;;;10.20;100.00
20017;BME280;10169;42.664;23.610;2023-05-19T03:43:45;95605.19;;;10.22;100.00
20017;BME280;10169;42.664;23.610;2023-05-19T03:45:45;95600.69;;;10.34;100.00
20017;BME280;10169;42.664;23.610;2023-05-19T03:47:46;95597.34;;;10.39;100.00
20017;BME280;10169;42.664;23.610;2023-05-19T03:49:46;95596.19;;;10.35;100.00
20017;BME280;10169;42.664;23.610;2023-05-19T03:51:46;95601.16;;;10.43;100.00
20017;BME280;10169;42.664;23.610;2023-05-19T03:53:47;95599.66;;;10.47;100.00
20017;BME280;10169;42.664;23.610;2023-05-19T03:55:47;95614.69;;;10.53;100.00
20017;BME280;10169;42.664;23.610;2023-05-19T03:57:48;95610.50;;;10.68;100.00
20017;BME280;10169;42.664;23.610;2023-05-19T03:59:48;95616.66;;;10.69;100.00
20017;BME280;10169;42.664;23.610;2023-05-19T04:01:49;95609.81;;;10.61;100.00
20017;BME280;10169;42.664;23.610;2023-05-19T04:03:50;95615.94;;;10.73;100.00
20017;BME280;10169;42.664;23.610;2023-05-19T04:05:51;95613.50;;;10.72;100.00
20017;BME280;10169;42.664;23.610;2023-05-19T04:07:51;95615.94;;;10.73;100.00
20017;BME280;10169;42.664;23.610;2023-05-19T04:09:51;95622.06;;;10.74;100.00
20017;BME280;10169;42.664;23.610;2023-05-19T04:11:51;95617.91;;;10.78;100.00
20017;BME280;10169;42.664;23.610;2023-05-19T04:13:52;95616.72;;;10.85;100.00
20017;BME280;10169;42.664;23.610;2023-05-19T04:15:52;95618.13;;;10.88;100.00
20017;BME280;10169;42.664;23.610;2023-05-19T04:17:52;95625.97;;;10.83;100.00
20017;BME280;10169;42.664;23.610;2023-05-19T04:19:53;95626.34;;;10.86;100.00
20017;BME280;10169;42.664;23.610;2023-05-19T04:21:53;95625.19;;;10.82;100.00
20017;BME280;10169;42.664;23.610;2023-05-19T04:23:53;95625.50;;;10.98;100.00
20017;BME280;10169;42.664;23.610;2023-05-19T04:25:54;95622.41;;;10.89;100.00
20017;BME280;10169;42.664;23.610;2023-05-19T04:27:55;95619.38;;;10.85;100.00
20017;BME280;10169;42.664;23.610;2023-05-19T04:29:56;95627.94;;;10.99;100.00
20017;BME280;10169;42.664;23.610;2023-05-19T04:31:57;95622.84;;;10.98;100.00
20017;BME280;10169;42.664;23.610;2023-05-19T04:33:57;95629.31;;;10.90;100.00
20017;BME280;10169;42.664;23.610;2023-05-19T04:35:57;95627.03;;;10.82;100.00
20017;BME280;10169;42.664;23.610;2023-05-19T04:37:58;95624.94;;;10.84;100.00
20017;BME280;10169;42.664;23.610;2023-05-19T04:39:58;95624.25;;;10.88;100.00
20017;BME280;10169;42.664;23.610;2023-05-19T04:41:59;95622.16;;;10.90;100.00
20017;BME280;10169;42.664;23.610;2023-05-19T04:43:59;95615.00;;;11.03;100.00
20017;BME280;10169;42.664;23.610;2023-05-19T04:45:59;95613.91;;;11.15;100.00
20017;BME280;10169;42.664;23.610;2023-05-19T04:48:01;95609.16;;;11.17;100.00
20017;BME280;10169;42.664;23.610;2023-05-19T04:50:01;95617.13;;;11.17;100.00
20017;BME280;10169;42.664;23.610;2023-05-19T04:52:02;95614.47;;;11.17;100.00
20017;BME280;10169;42.664;23.610;2023-05-19T04:54:02;95620.06;;;11.04;100.00
20017;BME280;10169;42.664;23.610;2023-05-19T04:56:03;95615.56;;;10.93;100.00
20017;BME280;10169;42.664;23.610;2023-05-19T04:58:03;95619.25;;;10.92;100.00
20017;BME280;10169;42.664;23.610;2023-05-19T05:00:03;95613.47;;;11.07;100.00
20017;BME280;10169;42.664;23.610;2023-05-19T05:02:07;95609.03;;;11.12;100.00
20017;BME280;10169;42.664;23.610;2023-05-19T05:04:07;95609.28;;;11.11;100.00
20017;BME280;10169;42.664;23.610;2023-05-19T05:06:07;95613.19;;;11.20;100.00
20017;BME280;10169;42.664;23.610;2023-05-19T05:08:08;95619.09;;;11.22;100.00
20017;BME280;10169;42.664;23.610;2023-05-19T05:10:09;95621.72;;;11.33;100.00
20017;BME280;10169;42.664;23.610;2023-05-19T05:12:10;95617.94;;;11.29;100.00
20017;BME280;10169;42.664;23.610;2023-05-19T05:14:10;95619.06;;;11.33;100.00
20017;BME280;10169;42.664;23.610;2023-05-19T05:16:11;95620.19;;;11.37;100.00
20017;BME280;10169;42.664;23.610;2023-05-19T05:18:12;95629.19;;;11.48;100.00
20017;BME280;10169;42.664;23.610;2023-05-19T05:20:12;95621.44;;;11.46;100.00
20017;BME280;10169;42.664;23.610;2023-05-19T05:22:13;95623.50;;;11.68;100.00
20017;BME280;10169;42.664;23.610;2023-05-19T05:24:13;95617.47;;;11.60;100.00
20017;BME280;10169;42.664;23.610;2023-05-19T05:26:17;95610.19;;;11.68;100.00
20017;BME280;10169;42.664;23.610;2023-05-19T05:28:22;95608.66;;;11.72;100.00
20017;BME280;10169;42.664;23.610;2023-05-19T05:30:22;95611.66;;;11.63;100.00
20017;BME280;10169;42.664;23.610;2023-05-19T05:32:23;95610.34;;;11.78;100.00
20017;BME280;10169;42.664;23.610;2023-05-19T05:34:23;95611.56;;;11.70;100.00
20017;BME280;10169;42.664;23.610;2023-05-19T05:36:23;95611.94;;;12.07;100.00
20017;BME280;10169;42.664;23.610;2023-05-19T05:38:24;95617.59;;;12.27;100.00
20017;BME280;10169;42.664;23.610;2023-05-19T05:40:24;95622.44;;;12.30;100.00
20017;BME280;10169;42.664;23.610;2023-05-19T05:42:25;95614.22;;;12.48;100.00
20017;BME280;10169;42.664;23.610;2023-05-19T05:44:25;95618.66;;;12.59;100.00
20017;BME280;10169;42.664;23.610;2023-05-19T05:46:25;95618.56;;;12.71;100.00
20017;BME280;10169;42.664;23.610;2023-05-19T05:48:26;95621.09;;;12.82;100.00
20017;BME280;10169;42.664;23.610;2023-05-19T05:50:26;95620.34;;;13.03;100.00
20017;BME280;10169;42.664;23.610;2023-05-19T05:52:28;95625.09;;;13.18;100.00
20017;BME280;10169;42.664;23.610;2023-05-19T05:54:29;95623.00;;;13.03;100.00
20017;BME280;10169;42.664;23.610;2023-05-19T05:56:29;95619.28;;;13.04;100.00
20017;BME280;10169;42.664;23.610;2023-05-19T05:58:30;95614.94;;;12.98;100.00
20017;BME280;10169;42.664;23.610;2023-05-19T06:00:31;95621.97;;;13.04;100.00
20017;BME280;10169;42.664;23.610;2023-05-19T06:02:32;95630.19;;;13.41;100.00
20017;BME280;10169;42.664;23.610;2023-05-19T06:04:32;95625.03;;;13.13;100.00
20017;BME280;10169;42.664;23.610;2023-05-19T06:06:32;95622.19;;;13.03;100.00
20017;BME280;10169;42.664;23.610;2023-05-19T06:08:33;95627.84;;;12.68;100.00
20017;BME280;10169;42.664;23.610;2023-05-19T06:10:33;95628.31;;;12.65;100.00
20017;BME280;10169;42.664;23.610;2023-05-19T06:12:35;95635.03;;;12.51;100.00
20017;BME280;10169;42.664;23.610;2023-05-19T06:14:39;95636.50;;;12.75;100.00
20017;BME280;10169;42.664;23.610;2023-05-19T06:16:39;95628.19;;;13.10;100.00
20017;BME280;10169;42.664;23.610;2023-05-19T06:18:40;95630.25;;;13.25;100.00
20017;BME280;10169;42.664;23.610;2023-05-19T06:20:40;95627.22;;;13.38;100.00
20017;BME280;10169;42.664;23.610;2023-05-19T06:22:41;95629.16;;;13.42;100.00
20017;BME280;10169;42.664;23.610;2023-05-19T06:24:41;95628.00;;;13.38;100.00
20017;BME280;10169;42.664;23.610;2023-05-19T06:26:41;95630.75;;;13.65;100.00
20017;BME280;10169;42.664;23.610;2023-05-19T06:28:41;95635.78;;;13.88;100.00
20017;BME280;10169;42.664;23.610;2023-05-19T06:30:42;95629.59;;;14.09;100.00
20017;BME280;10169;42.664;23.610;2023-05-19T06:32:42;95625.34;;;14.13;100.00
20017;BME280;10169;42.664;23.610;2023-05-19T06:34:42;95625.28;;;14.08;100.00
20017;BME280;10169;42.664;23.610;2023-05-19T06:36:42;95629.28;;;14.06;100.00
20017;BME280;10169;42.664;23.610;2023-05-19T06:38:43;95628.03;;;14.13;100.00
20017;BME280;10169;42.664;23.610;2023-05-19T06:40:43;95630.16;;;14.38;100.00
20017;BME280;10169;42.664;23.610;2023-05-19T06:42:43;95627.31;;;14.49;100.00
20017;BME280;10169;42.664;23.610;2023-05-19T06:44:44;95632.22;;;14.31;100.00
20017;BME280;10169;42.664;23.610;2023-05-19T06:46:44;95624.69;;;14.60;100.00
20017;BME280;10169;42.664;23.610;2023-05-19T06:48:44;95626.81;;;14.58;100.00
20017;BME280;10169;42.664;23.610;2023-05-19T06:50:45;95624.94;;;14.95;100.00
20017;BME280;10169;42.664;23.610;2023-05-19T06:52:45;95625.91;;;15.25;100.00
20017;BME280;10169;42.664;23.610;2023-05-19T06:54:46;95625.22;;;14.98;100.00
20017;BME280;10169;42.664;23.610;2023-05-19T06:56:47;95622.19;;;14.85;100.00
20017;BME280;10169;42.664;23.610;2023-05-19T06:58:48;95622.44;;;15.25;100.00
20017;BME280;10169;42.664;23.610;2023-05-19T07:00:48;95616.94;;;15.47;100.00
20017;BME280;10169;42.664;23.610;2023-05-19T07:02:48;95614.94;;;15.22;100.00
20017;BME280;10169;42.664;23.610;2023-05-19T07:04:48;95616.50;;;15.18;100.00
20017;BME280;10169;42.664;23.610;2023-05-19T07:06:51;95614.00;;;15.48;100.00
20017;BME280;10169;42.664;23.610;2023-05-19T07:08:52;95618.88;;;15.71;100.00
20017;BME280;10169;42.664;23.610;2023-05-19T07:10:52;95607.06;;;15.57;100.00
20017;BME280;10169;42.664;23.610;2023-05-19T07:12:54;95610.88;;;15.76;100.00
20017;BME280;10169;42.664;23.610;2023-05-19T07:15:04;95615.72;;;15.84;100.00
20017;BME280;10169;42.664;23.610;2023-05-19T07:17:04;95607.16;;;15.92;100.00
20017;BME280;10169;42.664;23.610;2023-05-19T07:19:04;95614.44;;;16.02;100.00
20017;BME280;10169;42.664;23.610;2023-05-19T07:21:05;95612.56;;;16.28;100.00
20017;BME280;10169;42.664;23.610;2023-05-19T07:23:06;95609.09;;;16.32;100.00
20017;BME280;10169;42.664;23.610;2023-05-19T07:25:06;95601.81;;;16.08;100.00
20017;BME280;10169;42.664;23.610;2023-05-19T07:27:07;95609.31;;;15.95;100.00
20017;BME280;10169;42.664;23.610;2023-05-19T07:29:08;95610.16;;;16.16;100.00
20017;BME280;10169;42.664;23.610;2023-05-19T07:31:08;95604.53;;;16.38;100.00
20017;BME280;10169;42.664;23.610;2023-05-19T07:33:08;95606.13;;;16.44;100.00
20017;BME280;10169;42.664;23.610;2023-05-19T07:35:09;95607.47;;;16.82;100.00
20017;BME280;10169;42.664;23.610;2023-05-19T07:37:09;95599.97;;;16.63;100.00
20017;BME280;10169;42.664;23.610;2023-05-19T07:39:09;95600.25;;;16.32;100.00
20017;BME280;10169;42.664;23.610;2023-05-19T07:41:10;95606.13;;;16.19;100.00
20017;BME280;10169;42.664;23.610;2023-05-19T07:43:10;95610.41;;;16.50;100.00
20017;BME280;10169;42.664;23.610;2023-05-19T07:45:10;95589.25;;;16.74;100.00
20017;BME280;10169;42.664;23.610;2023-05-19T07:47:11;95606.63;;;17.11;100.00
20017;BME280;10169;42.664;23.610;2023-05-19T07:49:11;95604.19;;;17.20;100.00
20017;BME280;10169;42.664;23.610;2023-05-19T07:51:12;95599.09;;;17.08;100.00
20017;BME280;10169;42.664;23.610;2023-05-19T07:53:12;95613.59;;;17.17;100.00
20017;BME280;10169;42.664;23.610;2023-05-19T07:55:12;95606.78;;;17.45;100.00
20017;BME280;10169;42.664;23.610;2023-05-19T07:57:13;95604.44;;;17.92;100.00
20017;BME280;10169;42.664;23.610;2023-05-19T07:59:14;95600.44;;;17.85;100.00
20017;BME280;10169;42.664;23.610;2023-05-19T08:01:15;95610.66;;;17.88;100.00
20017;BME280;10169;42.664;23.610;2023-05-19T08:03:15;95600.91;;;18.02;100.00
20017;BME280;10169;42.664;23.610;2023-05-19T08:05:17;95610.56;;;18.47;100.00
20017;BME280;10169;42.664;23.610;2023-05-19T08:07:17;95607.94;;;18.32;100.00
20017;BME280;10169;42.664;23.610;2023-05-19T08:09:17;95597.09;;;18.03;100.00
20017;BME280;10169;42.664;23.610;2023-05-19T08:11:18;95605.38;;;17.73;100.00
20017;BME280;10169;42.664;23.610;2023-05-19T08:13:18;95607.16;;;17.18;100.00
20017;BME280;10169;42.664;23.610;2023-05-19T08:15:18;95613.06;;;17.15;100.00
20017;BME280;10169;42.664;23.610;2023-05-19T08:17:19;95612.22;;;17.30;100.00
20017;BME280;10169;42.664;23.610;2023-05-19T08:19:19;95613.47;;;17.58;100.00
20017;BME280;10169;42.664;23.610;2023-05-19T08:21:20;95606.31;;;17.23;100.00
20017;BME280;10169;42.664;23.610;2023-05-19T08:23:20;95618.72;;;17.14;100.00
20017;BME280;10169;42.664;23.610;2023-05-19T08:25:21;95606.38;;;17.82;100.00
20017;BME280;10169;42.664;23.610;2023-05-19T08:27:21;95609.22;;;18.00;100.00
20017;BME280;10169;42.664;23.610;2023-05-19T08:29:21;95610.50;;;18.13;100.00
20017;BME280;10169;42.664;23.610;2023-05-19T08:31:22;95604.34;;;18.07;100.00
20017;BME280;10169;42.664;23.610;2023-05-19T08:33:23;95608.03;;;18.22;100.00
20017;BME280;10169;42.664;23.610;2023-05-19T08:35:24;95607.59;;;18.43;100.00
20017;BME280;10169;42.664;23.610;2023-05-19T08:37:24;95601.41;;;18.76;100.00
20017;BME280;10169;42.664;23.610;2023-05-19T08:39:25;95592.63;;;19.47;100.00
20017;BME280;10169;42.664;23.610;2023-05-19T08:41:26;95599.06;;;19.22;100.00
20017;BME280;10169;42.664;23.610;2023-05-19T08:43:26;95595.06;;;19.67;100.00
20017;BME280;10169;42.664;23.610;2023-05-19T08:45:26;95600.47;;;20.28;100.00
20017;BME280;10169;42.664;23.610;2023-05-19T08:47:27;95597.16;;;20.31;100.00
20017;BME280;10169;42.664;23.610;2023-05-19T08:49:27;95587.78;;;19.86;100.00
20017;BME280;10169;42.664;23.610;2023-05-19T08:53:35;95589.88;;;19.23;100.00
20017;BME280;10169;42.664;23.610;2023-05-19T08:55:45;95590.84;;;19.80;100.00
20017;BME280;10169;42.664;23.610;2023-05-19T08:57:48;95588.94;;;20.41;100.00
20017;BME280;10169;42.664;23.610;2023-05-19T08:59:49;95586.38;;;20.31;100.00
20017;BME280;10169;42.664;23.610;2023-05-19T09:01:51;95587.22;;;19.89;100.00
20017;BME280;10169;42.664;23.610;2023-05-19T09:03:53;95583.25;;;20.24;100.00
20017;BME280;10169;42.664;23.610;2023-05-19T09:05:54;95587.09;;;20.55;100.00
20017;BME280;10169;42.664;23.610;2023-05-19T09:07:54;95589.28;;;20.53;100.00
20017;BME280;10169;42.664;23.610;2023-05-19T09:09:54;95583.97;;;20.30;100.00
20017;BME280;10169;42.664;23.610;2023-05-19T09:11:55;95575.13;;;20.43;100.00
20017;BME280;10169;42.664;23.610;2023-05-19T09:13:55;95570.53;;;20.43;100.00
20017;BME280;10169;42.664;23.610;2023-05-19T09:15:56;95565.44;;;20.42;100.00
20017;BME280;10169;42.664;23.610;2023-05-19T09:18:14;95572.78;;;20.17;100.00
20017;BME280;10169;42.664;23.610;2023-05-19T09:20:15;95570.22;;;20.45;100.00
20017;BME280;10169;42.664;23.610;2023-05-19T09:22:15;95564.97;;;20.53;100.00
20017;BME280;10169;42.664;23.610;2023-05-19T09:24:19;95569.44;;;20.76;100.00
20017;BME280;10169;42.664;23.610;2023-05-19T09:26:24;95567.13;;;21.16;100.00
20017;BME280;10169;42.664;23.610;2023-05-19T09:28:35;95563.50;;;21.61;98.20
20017;BME280;10169;42.664;23.610;2023-05-19T09:30:36;95570.09;;;21.96;100.00
20017;BME280;10169;42.664;23.610;2023-05-19T09:32:36;95566.81;;;21.17;96.60
20017;BME280;10169;42.664;23.610;2023-05-19T09:34:39;95571.00;;;21.10;98.73
20017;BME280;10169;42.664;23.610;2023-05-19T09:36:40;95557.63;;;20.72;100.00
20017;BME280;10169;42.664;23.610;2023-05-19T09:38:41;95560.28;;;20.91;100.00
20017;BME280;10169;42.664;23.610;2023-05-19T09:40:41;95560.34;;;21.18;100.00
20017;BME280;10169;42.664;23.610;2023-05-19T09:42:41;95556.66;;;20.82;100.00
20017;BME280;10169;42.664;23.610;2023-05-19T09:44:43;95558.28;;;19.95;100.00
20017;BME280;10169;42.664;23.610;2023-05-19T09:46:47;95551.34;;;20.07;100.00
20017;BME280;10169;42.664;23.610;2023-05-19T09:48:47;95556.09;;;20.15;100.00
20017;BME280;10169;42.664;23.610;2023-05-19T09:50:48;95541.09;;;20.28;100.00
20017;BME280;10169;42.664;23.610;2023-05-19T09:52:50;95551.84;;;20.47;100.00
20017;BME280;10169;42.664;23.610;2023-05-19T09:54:51;95546.28;;;21.30;100.00
20017;BME280;10169;42.664;23.610;2023-05-19T09:56:58;95544.22;;;21.40;100.00
20017;BME280;10169;42.664;23.610;2023-05-19T09:59:00;95542.91;;;21.11;100.00
20017;BME280;10169;42.664;23.610;2023-05-19T10:01:01;95542.03;;;20.83;100.00
20017;BME280;10169;42.664;23.610;2023-05-19T10:03:02;95544.06;;;20.27;100.00
20017;BME280;10169;42.664;23.610;2023-05-19T10:05:04;95540.34;;;20.22;100.00
20017;BME280;10169;42.664;23.610;2023-05-19T10:07:04;95537.34;;;19.87;100.00
20017;BME280;10169;42.664;23.610;2023-05-19T10:09:05;95535.84;;;19.99;100.00
20017;BME280;10169;42.664;23.610;2023-05-19T10:11:05;95535.84;;;19.99;100.00
20017;BME280;10169;42.664;23.610;2023-05-19T10:13:05;95541.66;;;20.06;100.00
20017;BME280;10169;42.664;23.610;2023-05-19T10:15:10;95535.25;;;20.02;100.00
20017;BME280;10169;42.664;23.610;2023-05-19T10:17:10;95535.75;;;20.23;100.00
20017;BME280;10169;42.664;23.610;2023-05-19T10:19:11;95528.75;;;20.54;100.00
20017;BME280;10169;42.664;23.610;2023-05-19T10:21:12;95528.75;;;21.00;100.00
20017;BME280;10169;42.664;23.610;2023-05-19T10:23:13;95526.69;;;21.11;100.00
20017;BME280;10169;42.664;23.610;2023-05-19T10:25:13;95531.97;;;21.56;100.00
20017;BME280;10169;42.664;23.610;2023-05-19T10:27:17;95525.34;;;21.62;99.90
20017;BME280;10169;42.664;23.610;2023-05-19T10:29:22;95521.03;;;21.61;99.30
20017;BME280;10169;42.664;23.610;2023-05-19T10:31:24;95517.59;;;21.20;100.00
20017;BME280;10169;42.664;23.610;2023-05-19T10:33:31;95516.72;;;20.79;100.00
20017;BME280;10169;42.664;23.610;2023-05-19T10:38:02;95512.75;;;21.04;100.00
20017;BME280;10169;42.664;23.610;2023-05-19T10:40:08;95506.47;;;21.35;96.32
20017;BME280;10169;42.664;23.610;2023-05-19T10:46:16;95512.66;;;22.87;77.69
20017;BME280;10169;42.664;23.610;2023-05-19T10:48:18;95514.50;;;22.56;76.22
20017;BME280;10169;42.664;23.610;2023-05-19T10:50:19;95513.81;;;21.84;78.38